Time;durP1;ratioP1;P1;durP2;ratioP2;P2;SDS_P1;SDS_P2;PMS_P1;PMS_P2;Temp;Humidity;BMP_temperature;BMP_pressure;BME280_temperature;BME280_humidity;BME280_pressure;Samples;Min_cycle;Max_cycle;Signal;HPM_P1;HPM_P2
2023/08/09 00:02:19;;;;;;;4.93;1.40;;;16.20;75.60;;;19.08;49.55;100942.84;5036600;28;20529;-62
2023/08/09 00:04:47;;;;;;;3.30;1.33;;;16.20;75.70;;;19.06;49.80;100944.91;5036345;28;20278;-59
2023/08/09 00:07:14;;;;;;;3.10;1.50;;;16.20;76.00;;;19.03;49.71;100943.50;5036257;28;20190;-62
2023/08/09 00:09:41;;;;;;;3.87;1.40;;;16.20;75.90;;;19.02;49.74;100938.41;5035863;28;20570;-63
2023/08/09 00:12:08;;;;;;;2.10;1.30;;;16.20;76.40;;;19.01;50.07;100937.59;5035151;28;20205;-61
2023/08/09 00:14:35;;;;;;;2.90;1.30;;;16.20;76.90;;;19.01;50.55;100936.78;5036116;28;20233;-62
2023/08/09 00:17:02;;;;;;;3.70;1.43;;;16.20;77.00;;;19.02;50.45;100935.75;5035980;28;20257;-62
2023/08/09 00:19:30;;;;;;;2.80;1.50;;;16.20;77.60;;;19.02;50.59;100930.41;5035841;28;20725;-64
2023/08/09 00:21:58;;;;;;;2.33;1.47;;;16.20;77.80;;;19.01;50.88;100928.78;5017085;28;20203;-62
2023/08/09 00:24:25;;;;;;;4.53;1.67;;;16.10;78.50;;;19.00;51.06;100938.63;5035874;28;20198;-61
2023/08/09 00:26:52;;;;;;;4.00;1.50;;;16.20;78.50;;;19.00;51.17;100932.47;5036285;28;20279;-63
2023/08/09 00:29:19;;;;;;;2.00;1.20;;;16.20;78.60;;;19.00;51.31;100932.47;5035310;28;20328;-62
2023/08/09 00:31:46;;;;;;;2.93;1.30;;;16.10;78.70;;;18.99;51.46;100933.53;5035440;28;20718;-62
2023/08/09 00:34:13;;;;;;;3.80;1.30;;;16.20;79.20;;;18.97;51.69;100935.59;5035379;28;20202;-62
2023/08/09 00:36:40;;;;;;;1.93;1.20;;;16.10;79.50;;;18.93;51.79;100933.38;5035030;28;20277;-62
2023/08/09 00:39:09;;;;;;;2.17;1.57;;;16.10;79.60;;;18.93;51.67;100937.88;5034324;28;20281;-62
2023/08/09 00:41:36;;;;;;;3.57;1.60;;;16.10;79.80;;;18.91;52.11;100930.13;5034901;28;20273;-61
2023/08/09 00:44:03;;;;;;;5.43;1.90;;;16.10;80.00;;;18.92;52.23;100939.72;5034920;28;20186;-64
2023/08/09 00:46:30;;;;;;;3.07;1.83;;;16.10;80.50;;;18.92;52.35;100939.72;5035413;28;20199;-62
2023/08/09 00:48:57;;;;;;;4.93;1.57;;;16.10;81.00;;;18.90;52.29;100939.16;5034992;28;20635;-59
2023/08/09 00:51:24;;;;;;;1.73;1.30;;;16.10;81.10;;;18.91;52.58;100939.97;5035076;28;20616;-62
2023/08/09 00:53:52;;;;;;;1.60;1.50;;;16.10;81.30;;;18.92;52.83;100941.63;5035385;28;20277;-63
2023/08/09 00:56:20;;;;;;;5.10;1.60;;;16.10;81.40;;;18.91;52.76;100937.31;5035133;28;20190;-63
2023/08/09 00:58:47;;;;;;;2.67;1.77;;;16.10;81.50;;;18.93;52.99;100948.56;5034763;28;20288;-62
2023/08/09 01:01:14;;;;;;;1.57;1.47;;;16.10;81.70;;;18.93;52.99;100951.22;5034783;28;20636;-62
2023/08/09 01:03:43;;;;;;;3.53;1.73;;;16.00;82.00;;;18.91;53.03;100951.47;5035372;28;20783;-61
2023/08/09 01:06:22;;;;;;;3.33;1.60;;;16.10;82.30;;;18.89;53.03;100961.53;5034889;28;20198;-63
2023/08/09 01:09:00;;;;;;;5.77;2.17;;;16.00;82.40;;;18.87;53.50;100954.81;5034741;28;20175;-62
2023/08/09 01:11:40;;;;;;;3.93;1.80;;;16.00;82.90;;;18.83;53.54;100951.75;5034633;28;20264;-62
2023/08/09 01:14:11;;;;;;;4.67;1.50;;;16.00;82.70;;;18.83;53.84;100948.25;5034867;28;20702;-61
2023/08/09 01:16:40;;;;;;;3.67;2.20;;;16.00;82.80;;;18.75;54.99;100952.06;5034867;28;20205;-62
2023/08/09 01:19:25;;;;;;;3.77;1.90;;;16.00;84.10;;;18.76;54.43;100950.19;5034478;28;20201;-61
2023/08/09 01:21:56;;;;;;;2.80;1.80;;;16.00;83.80;;;18.79;54.58;100949.75;5034635;28;20624;-62
2023/08/09 01:24:26;;;;;;;3.30;2.07;;;16.00;84.00;;;18.81;54.36;100953.00;5035219;28;20179;-62
2023/08/09 01:26:53;;;;;;;2.20;1.97;;;16.00;83.90;;;18.81;54.38;100951.16;5034808;28;20187;-62
2023/08/09 01:29:20;;;;;;;3.13;1.90;;;16.00;84.00;;;18.81;54.44;100948.50;5034509;28;20215;-61
2023/08/09 01:31:47;;;;;;;2.97;1.43;;;16.00;83.90;;;18.82;54.57;100958.16;5034230;28;20285;-61
2023/08/09 01:34:15;;;;;;;4.50;2.00;;;16.00;84.30;;;18.84;54.51;100957.91;5034392;28;20248;-63
2023/08/09 01:36:47;;;;;;;3.93;2.23;;;16.00;84.10;;;18.81;54.49;100961.84;5033562;28;20716;-62
2023/08/09 01:39:22;;;;;;;2.47;2.07;;;16.00;84.30;;;18.81;54.41;100958.34;5034368;28;20183;-63
2023/08/09 01:41:51;;;;;;;3.40;2.03;;;16.00;84.30;;;18.81;54.52;100959.16;5033846;28;20205;-63
2023/08/09 01:44:20;;;;;;;4.60;1.93;;;16.00;84.40;;;18.79;54.50;100969.25;5033099;28;20248;-62
2023/08/09 01:46:47;;;;;;;2.50;1.90;;;15.90;84.50;;;18.79;54.68;100965.75;5034036;28;20277;-61
2023/08/09 01:49:21;;;;;;;2.80;2.23;;;15.90;84.80;;;18.75;54.86;100960.06;5033638;28;20183;-62
2023/08/09 01:51:48;;;;;;;2.80;2.30;;;15.90;84.90;;;18.72;55.00;100965.03;5033601;28;20196;-61
2023/08/09 01:54:17;;;;;;;4.60;2.33;;;15.90;85.20;;;18.69;55.09;100963.59;5034368;28;20246;-61
2023/08/09 01:56:45;;;;;;;3.17;2.40;;;15.90;85.50;;;18.69;55.11;100960.13;5034225;28;20195;-64
2023/08/09 01:59:14;;;;;;;2.63;2.27;;;15.80;85.50;;;18.68;55.31;100964.66;5033597;28;20214;-61
2023/08/09 02:01:41;;;;;;;3.27;2.10;;;15.80;85.70;;;18.69;55.37;100965.44;5033834;28;20198;-62
2023/08/09 02:04:09;;;;;;;7.43;2.90;;;15.80;85.80;;;18.72;55.55;100965.84;5034387;28;20195;-61
2023/08/09 02:06:38;;;;;;;4.00;2.27;;;15.80;86.10;;;18.77;55.86;100968.66;5034164;28;20244;-60
2023/08/09 02:09:06;;;;;;;7.93;2.63;;;15.80;86.50;;;18.81;55.48;100967.16;5033016;28;20225;-62
2023/08/09 02:11:33;;;;;;;4.97;2.67;;;15.90;86.70;;;18.85;55.71;100976.34;5033602;28;20252;-66
2023/08/09 02:14:00;;;;;;;5.73;2.70;;;15.90;86.60;;;18.82;55.52;100974.16;5034006;28;20198;-59
2023/08/09 02:16:29;;;;;;;4.17;3.27;;;15.90;86.60;;;18.80;55.59;100975.41;5033288;28;20278;-62
2023/08/09 02:18:56;;;;;;;5.37;2.90;;;15.90;86.80;;;18.75;55.86;100969.91;5033633;28;20214;-61
2023/08/09 02:21:23;;;;;;;3.83;3.03;;;15.90;87.00;;;18.70;56.09;100975.09;5033614;28;20194;-62
2023/08/09 02:23:50;;;;;;;5.83;3.10;;;15.80;86.80;;;18.64;56.19;100974.13;5033374;28;20198;-62
2023/08/09 02:26:18;;;;;;;5.63;3.27;;;15.80;87.00;;;18.60;56.30;100972.94;5033533;28;20600;-60
2023/08/09 02:28:46;;;;;;;5.43;3.40;;;15.80;87.30;;;18.56;56.76;100977.09;5033472;28;20225;-61
2023/08/09 02:31:13;;;;;;;5.03;3.20;;;15.80;87.50;;;18.53;56.69;100982.03;5033195;28;20232;-62
2023/08/09 02:33:41;;;;;;;3.40;3.07;;;15.70;87.60;;;18.51;56.64;100984.94;5033231;28;20221;-61
2023/08/09 02:36:08;;;;;;;5.40;2.93;;;15.70;87.70;;;18.49;56.68;100979.00;5033619;28;20195;-62
2023/08/09 02:38:35;;;;;;;6.83;3.27;;;15.70;87.90;;;18.50;56.74;100988.63;5032855;28;20218;-62
2023/08/09 02:41:06;;;;;;;3.40;2.70;;;15.70;88.00;;;18.49;57.02;100987.00;5033493;28;20210;-60
2023/08/09 02:43:33;;;;;;;8.77;3.80;;;15.60;87.90;;;18.47;56.86;100983.72;5033423;28;20674;-61
2023/08/09 02:46:00;;;;;;;7.00;3.90;;;15.60;88.10;;;18.45;57.21;100977.78;5033275;28;20195;-63
2023/08/09 02:48:27;;;;;;;3.77;3.33;;;15.60;88.20;;;18.46;57.19;100992.78;5033503;28;20194;-63
2023/08/09 02:50:55;;;;;;;6.13;3.80;;;15.60;88.40;;;18.46;57.17;100987.44;5033259;28;20214;-62
2023/08/09 02:53:33;;;;;;;5.13;3.40;;;15.60;88.30;;;18.43;57.26;100997.69;5033045;28;20894;-63
2023/08/09 02:56:00;;;;;;;5.30;3.30;;;15.60;88.40;;;18.44;57.25;100989.50;5033587;28;20520;-62
2023/08/09 02:58:27;;;;;;;3.67;3.10;;;15.60;88.60;;;18.45;57.28;100992.94;5033062;28;20305;-61
2023/08/09 03:00:54;;;;;;;5.23;3.37;;;15.60;88.60;;;18.44;57.23;100994.81;5033230;28;20285;-60
2023/08/09 03:03:21;;;;;;;5.23;3.57;;;15.60;88.80;;;18.44;57.46;100994.81;5034808;28;20205;-60
2023/08/09 03:05:49;;;;;;;3.83;3.20;;;15.60;88.80;;;18.44;57.48;101002.00;5036931;28;20191;-60
2023/08/09 03:08:17;;;;;;;3.67;2.90;;;15.60;88.90;;;18.44;57.44;100997.47;5037145;28;20639;-62
2023/08/09 03:10:44;;;;;;;4.47;3.23;;;15.60;89.10;;;18.47;57.42;101001.59;5036536;28;20293;-60
2023/08/09 03:13:14;;;;;;;8.07;3.37;;;15.60;89.10;;;18.46;57.14;101008.78;5036983;28;20201;-61
2023/08/09 03:15:41;;;;;;;5.73;3.40;;;15.60;88.90;;;18.49;57.60;101011.00;5037132;28;20201;-61
2023/08/09 03:18:09;;;;;;;4.80;3.20;;;15.60;89.00;;;18.49;57.42;101013.66;5036684;28;20256;-62
2023/08/09 03:20:37;;;;;;;4.47;3.90;;;15.60;89.00;;;18.50;57.19;101003.81;5036746;28;20214;-61
2023/08/09 03:23:04;;;;;;;7.60;3.83;;;15.60;89.00;;;18.49;57.37;101016.34;5024968;28;20552;-61
2023/08/09 03:25:34;;;;;;;3.50;3.20;;;15.60;89.30;;;18.47;57.24;101015.72;5036861;28;20248;-61
2023/08/09 03:28:01;;;;;;;4.83;3.53;;;15.60;89.00;;;18.45;57.55;101015.09;5036504;28;20249;-63
2023/08/09 03:30:28;;;;;;;4.47;3.87;;;15.60;89.10;;;18.47;57.30;101020.25;5036484;28;20206;-62
2023/08/09 03:32:55;;;;;;;5.67;4.33;;;15.60;89.20;;;18.47;57.55;101017.59;5036324;28;20281;-62
2023/08/09 03:35:22;;;;;;;5.60;3.97;;;15.60;89.20;;;18.46;57.38;101014.09;5036830;28;20187;-62
2023/08/09 03:37:49;;;;;;;3.83;3.40;;;15.60;89.20;;;18.48;57.46;101017.34;5035944;28;20670;-62
2023/08/09 03:40:16;;;;;;;3.27;2.90;;;15.60;89.40;;;18.50;57.69;101019.78;5036691;28;20605;-60
2023/08/09 03:42:45;;;;;;;4.30;3.60;;;15.60;89.40;;;18.54;57.40;101031.66;5036307;28;20616;-61
2023/08/09 03:45:12;;;;;;;5.20;3.20;;;15.60;89.50;;;18.55;57.44;101023.44;5036076;28;20634;-61
2023/08/09 03:47:39;;;;;;;5.40;3.70;;;15.60;89.40;;;18.59;57.61;101029.16;5036282;28;20274;-62
2023/08/09 03:50:07;;;;;;;4.77;3.47;;;15.70;89.60;;;18.61;57.57;101027.88;5036060;28;20214;-62
2023/08/09 03:52:34;;;;;;;5.77;3.53;;;15.70;89.40;;;18.62;57.57;101037.53;5036196;28;20555;-61
2023/08/09 03:55:01;;;;;;;5.03;3.77;;;15.70;89.20;;;18.63;57.60;101036.50;5036360;28;20754;-61
2023/08/09 03:57:29;;;;;;;4.50;3.63;;;15.70;89.20;;;18.63;57.47;101031.19;5036027;28;20229;-62
2023/08/09 03:59:57;;;;;;;5.33;3.87;;;15.70;89.00;;;18.62;57.37;101040.19;5035709;28;20214;-62
2023/08/09 04:02:24;;;;;;;5.17;3.97;;;15.80;89.10;;;18.60;57.28;101044.94;5036398;28;20584;-62
2023/08/09 04:04:51;;;;;;;4.53;4.03;;;15.70;88.90;;;18.58;57.26;101049.69;5035689;28;20201;-59
2023/08/09 04:07:19;;;;;;;4.23;3.77;;;15.70;88.90;;;18.56;57.15;101054.41;5036003;28;20193;-61
2023/08/09 04:09:46;;;;;;;5.53;3.90;;;15.70;89.00;;;18.54;57.34;101048.47;5035540;28;20209;-63
2023/08/09 04:12:13;;;;;;;4.53;4.10;;;15.70;89.10;;;18.54;57.36;101050.34;5035697;28;20209;-63
2023/08/09 04:14:40;;;;;;;5.30;4.80;;;15.70;89.40;;;18.52;57.33;101050.53;5035707;28;20601;-62
2023/08/09 04:17:08;;;;;;;5.00;3.40;;;15.60;89.20;;;18.51;57.22;101066.75;5036028;28;20194;-61
2023/08/09 04:19:35;;;;;;;6.10;3.80;;;15.60;89.20;;;18.48;57.36;101057.34;5021509;28;20754;-63
2023/08/09 04:22:04;;;;;;;4.87;4.20;;;15.60;89.20;;;18.47;57.27;101055.69;5029208;28;20222;-62
2023/08/09 04:24:31;;;;;;;5.47;4.13;;;15.60;89.10;;;18.47;57.31;101063.69;5035640;28;20278;-62
2023/08/09 04:26:59;;;;;;;5.10;4.60;;;15.60;89.40;;;18.48;57.38;101062.69;5035553;28;20555;-63
2023/08/09 04:29:27;;;;;;;4.40;3.80;;;15.60;89.40;;;18.50;57.41;101062.44;5035694;28;20214;-63
2023/08/09 04:31:54;;;;;;;5.50;4.23;;;15.60;89.40;;;18.50;57.32;101073.94;5035019;28;20278;-62
2023/08/09 04:34:23;;;;;;;5.70;4.13;;;15.50;89.20;;;18.49;57.17;101077.66;5035529;28;20201;-63
2023/08/09 04:36:52;;;;;;;12.20;5.20;;;15.60;89.30;;;18.49;57.19;101083.00;5020454;28;20269;-64
2023/08/09 04:39:23;;;;;;;5.03;4.23;;;15.60;89.30;;;18.49;57.40;101076.84;5033648;28;20594;-62
2023/08/09 04:41:50;;;;;;;5.17;4.03;;;15.50;89.20;;;18.48;57.21;101081.34;5034422;28;20222;-62
2023/08/09 04:44:17;;;;;;;6.10;4.13;;;15.60;89.20;;;18.47;57.23;101084.25;5034960;28;20226;-61
2023/08/09 04:46:44;;;;;;;6.30;4.67;;;15.50;89.00;;;18.46;57.27;101087.91;5035116;28;20694;-60
2023/08/09 04:49:12;;;;;;;5.00;4.13;;;15.50;89.10;;;18.46;57.44;101091.41;5035264;28;20603;-63
2023/08/09 04:51:40;;;;;;;4.00;3.70;;;15.50;89.40;;;18.48;57.39;101092.00;5034663;28;20195;-63
2023/08/09 04:54:07;;;;;;;7.90;4.33;;;15.50;89.30;;;18.49;57.28;101087.50;5035104;28;20301;-62
2023/08/09 04:56:34;;;;;;;5.53;4.17;;;15.50;89.20;;;18.47;57.10;101090.34;5034937;28;20208;-62
2023/08/09 04:59:01;;;;;;;7.00;4.33;;;15.50;89.10;;;18.49;57.20;101088.31;5034434;28;20214;-62
2023/08/09 05:01:28;;;;;;;8.63;3.90;;;15.50;89.00;;;18.51;57.29;101086.25;5034482;28;20222;-62
2023/08/09 05:03:55;;;;;;;5.17;3.70;;;15.60;89.10;;;18.51;57.11;101088.09;5034927;28;20195;-60
2023/08/09 05:06:22;;;;;;;4.37;3.97;;;15.60;89.00;;;18.52;56.94;101093.19;5034914;28;20197;-63
2023/08/09 05:08:51;;;;;;;4.83;3.40;;;15.60;88.80;;;18.54;56.93;101099.13;5034745;28;20677;-63
2023/08/09 05:11:18;;;;;;;4.33;3.27;;;15.60;88.90;;;18.58;57.10;101103.00;5034415;28;20680;-63
2023/08/09 05:13:45;;;;;;;4.87;3.70;;;15.60;88.90;;;18.63;56.83;101102.34;5034752;28;20191;-62
2023/08/09 05:16:12;;;;;;;4.40;3.70;;;15.60;88.80;;;18.67;56.98;101101.69;5017322;28;20198;-61
2023/08/09 05:18:39;;;;;;;4.43;3.37;;;15.70;88.70;;;18.69;56.78;101109.47;5014588;28;20675;-63
2023/08/09 05:21:06;;;;;;;7.97;3.43;;;15.70;88.40;;;18.69;56.59;101107.63;5019066;28;20213;-63
2023/08/09 05:23:33;;;;;;;3.70;3.33;;;15.70;88.30;;;18.73;56.54;101116.81;5033866;28;20203;-63
2023/08/09 05:26:02;;;;;;;4.97;3.73;;;15.80;88.30;;;18.77;56.35;101118.03;5033748;28;20222;-62
2023/08/09 05:28:29;;;;;;;5.40;3.27;;;15.80;88.10;;;18.78;56.37;101119.63;5033364;28;20670;-61
2023/08/09 05:30:56;;;;;;;5.20;3.43;;;15.80;87.80;;;18.82;56.20;101115.53;5034200;28;20276;-62
2023/08/09 05:33:23;;;;;;;6.47;3.10;;;15.90;87.70;;;18.86;56.16;101119.38;5034276;28;20195;-61
2023/08/09 05:35:50;;;;;;;3.77;2.87;;;15.90;87.70;;;18.94;55.95;101116.41;5034067;28;20196;-62
2023/08/09 05:38:17;;;;;;;4.70;3.30;;;15.90;87.60;;;19.02;55.99;101109.19;5031385;28;20424;-63
2023/08/09 05:40:44;;;;;;;3.87;2.73;;;16.00;87.40;;;19.06;55.52;101116.53;5029480;28;20222;-63
2023/08/09 05:43:13;;;;;;;4.53;2.90;;;16.00;87.00;;;19.10;55.39;101114.22;5033321;28;20206;-62
2023/08/09 05:45:41;;;;;;;3.50;3.20;;;16.10;86.80;;;19.13;55.05;101117.28;5032387;28;20689;-62
2023/08/09 05:48:08;;;;;;;3.37;2.93;;;16.10;86.60;;;19.15;55.15;101109.03;5033706;28;20688;-63
2023/08/09 05:50:35;;;;;;;5.37;2.97;;;16.20;86.50;;;19.19;55.27;101112.88;5032156;28;20817;-63
2023/08/09 05:53:03;;;;;;;3.90;3.00;;;16.20;86.30;;;19.24;54.85;101123.72;5033616;28;20230;-63
2023/08/09 05:55:30;;;;;;;4.07;2.90;;;16.30;86.10;;;19.28;54.59;101124.91;5033776;28;20253;-62
2023/08/09 05:57:57;;;;;;;3.80;3.00;;;16.30;86.00;;;19.33;54.59;101131.22;5033854;28;20655;-61
2023/08/09 06:00:25;;;;;;;5.57;2.70;;;16.30;85.90;;;19.39;54.63;101137.56;5033321;28;20218;-63
2023/08/09 06:02:52;;;;;;;4.27;2.70;;;16.40;85.80;;;19.40;54.67;101131.97;5033319;28;20194;-63
2023/08/09 06:05:23;;;;;;;5.67;3.30;;;16.40;85.60;;;19.45;54.45;101142.00;5033642;28;20191;-62
2023/08/09 06:07:50;;;;;;;3.87;3.10;;;16.50;85.70;;;19.49;54.15;101143.19;5033153;28;20262;-61
2023/08/09 06:10:19;;;;;;;3.40;2.63;;;16.50;85.40;;;19.50;54.38;101150.16;5032738;28;20648;-62
2023/08/09 06:12:46;;;;;;;3.93;2.57;;;16.50;85.20;;;19.55;53.98;101151.13;5032765;28;20194;-67
2023/08/09 06:15:14;;;;;;;3.30;2.97;;;16.60;85.40;;;19.60;54.10;101155.81;5032999;28;20274;-61
2023/08/09 06:17:42;;;;;;;3.63;3.17;;;16.60;85.30;;;19.68;54.32;101158.19;5033582;28;20182;-62
2023/08/09 06:20:14;;;;;;;4.33;3.10;;;16.60;85.30;;;19.76;54.17;101163.19;5033111;28;20684;-62
2023/08/09 06:22:41;;;;;;;3.60;2.50;;;16.70;85.10;;;19.80;54.01;101161.69;5033121;28;20211;-61
2023/08/09 06:25:09;;;;;;;5.77;2.57;;;16.70;85.00;;;19.85;53.70;101159.19;5033413;28;20187;-60
2023/08/09 06:27:36;;;;;;;5.67;2.90;;;16.80;84.70;;;19.90;53.35;101167.34;5033470;28;20198;-60
2023/08/09 06:30:06;;;;;;;4.13;2.67;;;16.80;84.40;;;19.97;53.10;101167.25;5033025;28;20214;-60
2023/08/09 06:32:33;;;;;;;4.30;2.40;;;16.90;84.40;;;20.02;53.28;101170.88;5032748;28;20190;-61
2023/08/09 06:35:01;;;;;;;3.63;2.37;;;17.00;84.20;;;20.09;53.15;101166.25;5030169;28;20219;-62
2023/08/09 06:37:28;;;;;;;2.83;2.10;;;17.00;84.00;;;20.16;53.30;101167.00;5021836;28;20703;-61
2023/08/09 06:39:57;;;;;;;6.07;2.70;;;17.10;83.90;;;20.23;52.46;101173.09;5036862;28;20324;-62
2023/08/09 06:42:24;;;;;;;2.90;2.10;;;17.20;83.50;;;20.31;52.36;101163.94;5036241;28;20252;-62
2023/08/09 06:44:51;;;;;;;3.43;2.40;;;17.20;83.40;;;20.40;52.28;101178.63;5036272;28;20617;-62
2023/08/09 06:47:18;;;;;;;4.63;2.30;;;17.30;83.30;;;20.50;52.46;101178.88;5036976;28;20198;-61
2023/08/09 06:49:45;;;;;;;4.57;2.37;;;17.40;83.00;;;20.57;51.72;101173.44;5036699;28;20293;-60
2023/08/09 06:52:14;;;;;;;3.43;2.20;;;17.50;82.60;;;20.65;52.28;101176.59;5036406;28;20625;-61
2023/08/09 06:54:41;;;;;;;2.90;2.30;;;17.60;82.30;;;20.75;51.54;101181.38;5036845;28;20324;-61
2023/08/09 06:57:08;;;;;;;4.37;1.90;;;17.60;81.80;;;20.82;51.63;101182.09;5036591;28;20187;-61
2023/08/09 06:59:35;;;;;;;3.53;2.27;;;17.70;81.60;;;20.89;50.68;101182.81;5036275;28;20218;-64
2023/08/09 07:02:02;;;;;;;6.00;2.17;;;17.80;81.30;;;20.96;51.13;101182.69;5036270;28;20568;-60
2023/08/09 07:04:29;;;;;;;2.13;1.60;;;17.90;81.50;;;21.05;51.23;101187.50;5036667;28;20230;-61
2023/08/09 07:06:56;;;;;;;3.57;2.07;;;17.90;81.30;;;21.13;50.58;101189.84;5036702;28;20270;-62
2023/08/09 07:09:24;;;;;;;2.90;1.67;;;18.00;80.60;;;21.19;50.18;101194.25;5036256;28;20297;-62
2023/08/09 07:11:51;;;;;;;2.43;1.63;;;18.10;79.80;;;21.22;49.56;101201.81;5034850;28;20612;-62
2023/08/09 07:14:18;;;;;;;6.27;1.87;;;18.10;79.40;;;21.27;49.58;101195.78;5036945;28;20244;-63
2023/08/09 07:16:45;;;;;;;5.70;1.83;;;18.20;79.40;;;21.32;49.72;101194.00;5036839;28;20194;-62
2023/08/09 07:19:12;;;;;;;7.33;1.73;;;18.30;79.30;;;21.40;49.22;101201.69;5036027;28;20611;-64
2023/08/09 07:21:39;;;;;;;2.97;2.03;;;18.30;79.20;;;21.48;49.30;101206.72;5035970;28;20289;-62
2023/08/09 07:24:07;;;;;;;4.07;1.80;;;18.40;79.20;;;21.56;49.17;101209.00;5036409;28;20705;-62
2023/08/09 07:26:35;;;;;;;2.10;1.90;;;18.50;79.80;;;21.68;48.80;101209.00;5036528;28;20198;-63
2023/08/09 07:29:03;;;;;;;3.50;1.73;;;18.50;78.40;;;21.82;48.46;101214.94;5036304;28;20218;-61
2023/08/09 07:31:30;;;;;;;3.40;2.00;;;18.60;77.60;;;21.92;48.12;101217.81;5036141;28;20221;-61
2023/08/09 07:33:57;;;;;;;4.17;2.00;;;18.70;77.30;;;21.99;48.03;101222.00;5035854;28;20205;-62
2023/08/09 07:36:24;;;;;;;5.57;1.50;;;18.80;77.10;;;22.07;47.66;101218.97;5021678;28;20209;-61
2023/08/09 07:38:54;;;;;;;5.10;1.83;;;18.90;76.70;;;22.12;47.48;101228.97;5035581;28;20194;-63
2023/08/09 07:41:21;;;;;;;2.90;1.50;;;18.90;76.70;;;22.19;47.29;101221.59;5035570;28;20241;-61
2023/08/09 07:43:49;;;;;;;2.97;1.70;;;19.10;76.10;;;22.29;47.33;101227.16;5035953;28;20293;-61
2023/08/09 07:46:16;;;;;;;2.43;1.33;;;19.10;76.00;;;22.40;47.04;101228.97;5036021;28;20282;-62
2023/08/09 07:48:43;;;;;;;3.80;1.70;;;19.20;75.60;;;22.50;46.17;101239.09;5035771;28;20543;-61
2023/08/09 07:51:11;;;;;;;3.27;1.67;;;19.20;74.60;;;22.75;45.97;101229.63;5035657;28;20297;-64
2023/08/09 07:53:39;;;;;;;3.60;1.60;;;19.40;74.80;;;23.49;45.82;101238.34;5036056;28;20195;-61
2023/08/09 07:56:08;;;;;;;4.60;1.80;;;19.60;75.90;;;24.49;44.26;101243.38;5035839;28;20190;-62
2023/08/09 07:58:35;;;;;;;5.30;1.67;;;20.00;75.10;;;25.01;42.31;101241.72;5035707;28;20222;-62
2023/08/09 08:01:04;;;;;;;3.73;1.57;;;20.40;72.30;;;25.18;41.28;101247.81;5035812;28;20225;-62
2023/08/09 08:03:31;;;;;;;2.70;1.10;;;20.80;71.00;;;25.18;41.21;101247.81;5035714;28;20642;-61
2023/08/09 08:05:59;;;;;;;10.30;1.87;;;21.10;70.00;;;25.06;40.53;101263.34;5035607;28;20209;-61
2023/08/09 08:08:27;;;;;;;2.67;1.40;;;21.30;68.20;;;24.90;40.25;101258.88;5035080;28;20281;-62
2023/08/09 08:10:54;;;;;;;3.40;1.53;;;21.40;67.30;;;24.81;41.19;101268.50;5035486;28;20282;-62
2023/08/09 08:13:22;;;;;;;2.50;1.43;;;21.40;67.90;;;24.75;40.71;101270.31;5035092;28;20614;-63
2023/08/09 08:15:50;;;;;;;3.43;1.50;;;21.30;67.10;;;24.94;40.84;101267.28;5035790;28;20194;-61
2023/08/09 08:18:18;;;;;;;4.80;1.80;;;21.30;66.90;;;25.41;39.83;101262.81;5035461;28;20560;-62
2023/08/09 08:20:45;;;;;;;2.07;1.40;;;21.50;67.00;;;26.13;38.90;101261.06;5035012;28;20222;-60
2023/08/09 08:23:12;;;;;;;3.13;1.80;;;21.70;65.90;;;26.49;37.41;101264.69;5033518;28;20729;-62
2023/08/09 08:25:39;;;;;;;3.80;1.30;;;22.10;64.80;;;26.95;37.05;101272.88;5035134;28;20221;-62
2023/08/09 08:28:07;;;;;;;2.87;1.80;;;22.40;64.30;;;28.07;36.02;101281.41;5035118;28;20191;-62
2023/08/09 08:30:34;;;;;;;3.97;1.57;;;22.80;63.90;;;29.31;34.07;101280.06;5034900;28;20264;-62
2023/08/09 08:33:01;;;;;;;2.43;1.23;;;23.40;61.90;;;30.34;32.12;101274.03;5034810;28;20277;-67
2023/08/09 08:35:36;;;;;;;3.07;1.60;;;24.10;59.20;;;31.34;29.76;101273.56;5035378;28;20632;-61
2023/08/09 08:38:03;;;;;;;2.70;1.33;;;24.80;57.00;;;32.21;29.44;101268.06;5034150;28;20190;-62
2023/08/09 08:40:31;;;;;;;3.07;1.30;;;25.50;56.40;;;32.88;28.52;101272.50;5034324;28;20305;-63
2023/08/09 08:42:59;;;;;;;2.70;1.30;;;26.10;54.50;;;33.08;27.67;101273.97;5034408;28;20286;-61
2023/08/09 08:45:26;;;;;;;2.57;1.33;;;26.70;52.30;;;32.40;27.78;101268.75;5034303;28;20289;-61
2023/08/09 08:47:53;;;;;;;4.00;1.50;;;26.90;49.80;;;31.42;28.76;101279.13;5034464;28;20594;-61
2023/08/09 08:50:23;;;;;;;2.60;1.27;;;26.90;49.70;;;30.81;28.92;101273.88;5034484;28;20207;-61
2023/08/09 08:52:53;;;;;;;2.10;1.57;;;26.50;47.90;;;30.72;28.95;101272.94;5034523;28;20202;-62
2023/08/09 08:55:20;;;;;;;2.30;1.70;;;26.30;48.40;;;31.21;28.65;101275.13;5034413;28;20604;-62
2023/08/09 08:57:47;;;;;;;2.57;1.20;;;26.20;48.90;;;31.48;28.49;101266.25;5034451;28;20187;-60
2023/08/09 09:00:16;;;;;;;2.30;1.50;;;26.40;49.90;;;31.58;28.20;101271.50;5033397;28;20588;-60
2023/08/09 09:02:53;;;;;;;3.80;1.70;;;26.40;48.50;;;31.56;27.41;101281.91;5034434;28;20277;-62
2023/08/09 09:05:20;;;;;;;2.00;1.70;;;26.50;47.90;;;31.18;27.75;101285.81;5034566;28;20197;-60
2023/08/09 09:07:50;;;;;;;4.80;1.47;;;26.50;47.50;;;31.54;27.68;101277.84;5034431;28;20218;-62
2023/08/09 09:10:20;;;;;;;2.23;1.23;;;26.40;47.30;;;32.52;26.96;101282.69;5034018;28;20682;-62
2023/08/09 09:12:50;;;;;;;2.77;1.50;;;26.60;47.70;;;33.26;26.22;101279.22;5034319;28;20191;-62
2023/08/09 09:15:18;;;;;;;2.63;1.33;;;26.90;47.60;;;33.48;25.41;101278.34;5034221;28;20190;-61
2023/08/09 09:17:46;;;;;;;2.07;1.40;;;27.30;46.30;;;33.65;25.84;101283.13;5033873;28;20202;-63
2023/08/09 09:20:18;;;;;;;2.17;1.20;;;27.60;46.40;;;34.00;24.43;101274.72;5033675;28;20628;-61
2023/08/09 09:22:46;;;;;;;1.37;1.10;;;27.80;43.90;;;33.87;24.35;101269.38;5034081;28;20273;-61
2023/08/09 09:25:17;;;;;;;1.37;1.27;;;28.00;42.60;;;33.96;23.67;101272.94;5033846;28;20195;-60
2023/08/09 09:27:52;;;;;;;2.83;1.40;;;28.10;41.70;;;33.91;23.55;101286.75;5033822;28;20249;-60
2023/08/09 09:30:24;;;;;;;2.90;1.30;;;28.10;41.30;;;34.22;23.55;101279.28;5033722;28;20617;-63
2023/08/09 09:32:57;;;;;;;2.87;1.60;;;28.30;41.20;;;34.76;23.39;101285.31;5033356;28;20221;-62
2023/08/09 09:35:28;;;;;;;2.47;1.47;;;28.50;40.90;;;35.76;22.39;101292.81;5034260;28;20206;-62
2023/08/09 09:38:00;;;;;;;2.97;1.40;;;28.80;40.50;;;36.12;21.25;101295.06;5033047;28;20209;-62
2023/08/09 09:40:31;;;;;;;4.33;2.13;;;29.10;38.70;;;35.68;21.73;101285.44;5033435;28;20246;-62
2023/08/09 09:43:06;;;;;;;2.20;1.43;;;29.30;38.40;;;35.02;22.25;101288.78;5033734;28;20202;-63
2023/08/09 09:45:36;;;;;;;1.80;1.23;;;29.40;37.70;;;33.87;22.96;101285.78;5033514;28;20300;-63
2023/08/09 09:48:13;;;;;;;1.70;1.57;;;29.10;37.90;;;32.74;24.40;101288.13;5033880;28;20194;-61
2023/08/09 09:50:41;;;;;;;2.10;1.30;;;28.70;38.50;;;32.59;24.62;101291.25;5033331;28;20217;-61
2023/08/09 09:53:13;;;;;;;2.97;1.00;;;28.30;39.10;;;33.27;23.80;101290.94;5033337;28;20203;-63
2023/08/09 09:55:40;;;;;;;1.60;1.50;;;28.20;39.60;;;33.90;23.04;101290.63;5033721;28;20201;-63
2023/08/09 09:58:09;;;;;;;2.67;1.30;;;28.10;39.70;;;35.14;22.08;101292.50;5033701;28;20269;-60
2023/08/09 10:00:41;;;;;;;2.20;1.42;;;28.40;39.20;;;35.20;22.39;101290.41;5033035;28;20211;-62
2023/08/09 10:03:10;;;;;;;1.90;1.40;;;28.70;38.80;;;34.59;22.19;101305.25;5033007;28;20187;-61
2023/08/09 10:05:43;;;;;;;1.50;1.20;;;28.80;38.20;;;33.85;22.20;101305.22;5033410;28;20620;-62
2023/08/09 10:08:12;;;;;;;1.77;1.30;;;28.60;37.20;;;33.67;23.15;101309.00;5033172;28;20711;-62
2023/08/09 10:10:44;;;;;;;2.80;1.27;;;28.60;38.40;;;33.93;22.92;101306.38;5033008;28;20203;-62
2023/08/09 10:13:18;;;;;;;1.60;1.50;;;28.60;38.20;;;34.06;23.04;101308.22;5033070;28;20217;-60
2023/08/09 10:15:53;;;;;;;2.07;1.73;;;28.70;38.30;;;34.54;22.63;101306.22;5033162;28;20212;-62
2023/08/09 10:18:29;;;;;;;3.33;1.70;;;28.70;38.00;;;34.64;21.74;101299.63;5033018;28;20268;-60